Time;durP1;ratioP1;P1;durP2;ratioP2;P2;SDS_P1;SDS_P2;PMS_P1;PMS_P2;Temp;Humidity;BMP_temperature;BMP_pressure;BME280_temperature;BME280_humidity;BME280_pressure;Samples;Min_cycle;Max_cycle;Signal;HPM_P1;HPM_P2
2022/03/26 00:01:45;;;;;;;24.77;13.02;;;;;;;;;;5053627;28;20063;-74
2022/03/26 00:04:14;;;;;;;25.17;12.23;;;;;;;;;;5056680;28;20556;-74
2022/03/26 00:06:40;;;;;;;22.45;11.55;;;;;;;;;;5051278;28;20162;-73
2022/03/26 00:09:06;;;;;;;20.38;10.15;;;;;;;;;;5052886;28;20398;-74
2022/03/26 00:11:32;;;;;;;16.75;8.98;;;;;;;;;;5053470;28;20536;-74
2022/03/26 00:14:00;;;;;;;16.55;9.00;;;;;;;;;;5052456;28;20099;-74
2022/03/26 00:16:32;;;;;;;15.52;7.07;;;;;;;;;;5058075;28;20465;-73
2022/03/26 00:18:58;;;;;;;16.48;6.80;;;;;;;;;;5056582;28;20543;-74
2022/03/26 00:21:24;;;;;;;11.93;7.18;;;;;;;;;;5056537;28;20436;-74
2022/03/26 00:23:50;;;;;;;15.23;7.20;;;;;;;;;;5058992;28;20486;-73
2022/03/26 00:26:16;;;;;;;16.05;7.57;;;;;;;;;;5059237;28;20037;-74
2022/03/26 00:28:42;;;;;;;15.45;7.50;;;;;;;;;;5062591;28;20028;-73
2022/03/26 00:31:08;;;;;;;13.68;7.60;;;;;;;;;;5072199;28;20033;-73
2022/03/26 00:33:34;;;;;;;14.65;6.90;;;;;;;;;;5064005;28;20025;-73
2022/03/26 00:36:01;;;;;;;12.15;7.35;;;;;;;;;;5076737;28;20033;-73
2022/03/26 00:38:27;;;;;;;13.98;7.07;;;;;;;;;;5076179;28;20037;-74
2022/03/26 00:40:53;;;;;;;12.23;6.63;;;;;;;;;;5056635;28;20032;-74
2022/03/26 00:43:21;;;;;;;14.68;6.85;;;;;;;;;;5057331;28;20167;-73
2022/03/26 00:45:47;;;;;;;15.48;7.07;;;;;;;;;;5056697;28;20612;-74
2022/03/26 00:48:13;;;;;;;12.73;7.50;;;;;;;;;;5056171;28;20517;-73
2022/03/26 00:50:40;;;;;;;15.07;7.90;;;;;;;;;;5074232;28;20070;-73
2022/03/26 00:53:06;;;;;;;13.80;7.28;;;;;;;;;;5075696;28;20070;-74
2022/03/26 00:55:32;;;;;;;14.90;6.82;;;;;;;;;;5061615;28;20117;-74
2022/03/26 00:57:58;;;;;;;13.15;7.55;;;;;;;;;;5056239;28;20067;-74
2022/03/26 01:00:29;;;;;;;14.40;7.57;;;;;;;;;;5055734;28;20063;-74
2022/03/26 01:02:57;;;;;;;10.68;6.97;;;;;;;;;;5057659;28;20098;-74
2022/03/26 01:05:26;;;;;;;12.48;7.10;;;;;;;;;;5057231;28;20013;-74
2022/03/26 01:07:52;;;;;;;15.32;7.20;;;;;;;;;;5056782;28;20062;-74
2022/03/26 01:10:18;;;;;;;11.65;7.55;;;;;;;;;;5057078;28;20037;-74
2022/03/26 01:12:44;;;;;;;15.57;8.07;;;;;;;;;;5058461;28;20028;-75
2022/03/26 01:15:10;;;;;;;16.60;7.63;;;;;;;;;;5061293;28;20041;-74
2022/03/26 01:17:36;;;;;;;13.23;8.15;;;;;;;;;;5069768;28;20025;-74
2022/03/26 01:20:06;;;;;;;24.77;13.05;;;;;;;;;;5056098;28;20387;-73
2022/03/26 01:22:32;;;;;;;22.33;12.32;;;;;;;;;;5056053;28;20032;-74
2022/03/26 01:24:58;;;;;;;32.15;16.90;;;;;;;;;;5062821;28;20462;-74
2022/03/26 01:27:28;;;;;;;29.88;17.50;;;;;;;;;;5067760;28;20028;-74
2022/03/26 01:29:57;;;;;;;21.60;11.70;;;;;;;;;;5078322;28;20052;-74
2022/03/26 01:32:23;;;;;;;16.55;9.68;;;;;;;;;;5060581;28;20074;-73
2022/03/26 01:34:49;;;;;;;15.40;8.27;;;;;;;;;;5075137;28;20075;-73
2022/03/26 01:37:16;;;;;;;13.88;8.00;;;;;;;;;;5073429;28;20367;-74
2022/03/26 01:39:42;;;;;;;15.00;8.30;;;;;;;;;;5075035;28;20029;-74
2022/03/26 01:42:09;;;;;;;13.80;8.57;;;;;;;;;;5068840;28;20048;-74
2022/03/26 01:44:36;;;;;;;14.73;7.72;;;;;;;;;;5062024;28;20603;-73
2022/03/26 01:47:03;;;;;;;15.13;7.78;;;;;;;;;;5055047;28;20390;-74
2022/03/26 01:49:29;;;;;;;13.82;7.40;;;;;;;;;;5072784;28;20059;-73
2022/03/26 01:51:56;;;;;;;14.00;7.70;;;;;;;;;;5072954;28;20028;-74
2022/03/26 01:54:22;;;;;;;12.98;7.50;;;;;;;;;;5056078;28;20565;-73
2022/03/26 01:56:49;;;;;;;13.07;7.45;;;;;;;;;;5071907;28;20494;-74
2022/03/26 01:59:15;;;;;;;10.50;7.03;;;;;;;;;;5074563;28;20103;-73
2022/03/26 02:01:42;;;;;;;13.18;7.45;;;;;;;;;;5064410;28;20078;-74
2022/03/26 02:04:08;;;;;;;20.17;7.57;;;;;;;;;;5054652;28;20041;-74
2022/03/26 02:06:34;;;;;;;14.65;6.88;;;;;;;;;;5055907;28;20092;-74
2022/03/26 02:09:08;;;;;;;12.95;6.88;;;;;;;;;;5055975;28;20131;-74
2022/03/26 02:11:38;;;;;;;12.15;7.30;;;;;;;;;;5054759;28;20065;-75
2022/03/26 02:14:07;;;;;;;13.98;6.82;;;;;;;;;;5060632;28;20485;-74
2022/03/26 02:16:34;;;;;;;12.68;6.65;;;;;;;;;;5053987;28;20595;-73
2022/03/26 02:19:00;;;;;;;11.70;6.57;;;;;;;;;;5054082;28;20482;-74
2022/03/26 02:21:27;;;;;;;14.63;6.80;;;;;;;;;;5062025;28;20059;-74
2022/03/26 02:23:53;;;;;;;12.20;6.85;;;;;;;;;;5073483;28;20070;-74
2022/03/26 02:26:25;;;;;;;10.35;6.65;;;;;;;;;;5066407;28;20089;-74
2022/03/26 02:28:52;;;;;;;11.65;6.22;;;;;;;;;;5053506;28;20028;-74
2022/03/26 02:31:19;;;;;;;13.57;7.43;;;;;;;;;;5054358;28;20041;-73
2022/03/26 02:33:47;;;;;;;11.82;7.07;;;;;;;;;;5054943;28;20025;-74
2022/03/26 02:36:16;;;;;;;15.25;7.60;;;;;;;;;;5057497;28;20037;-74
2022/03/26 02:38:47;;;;;;;14.50;7.05;;;;;;;;;;5058786;28;20028;-75
2022/03/26 02:41:13;;;;;;;12.90;6.65;;;;;;;;;;5071989;28;20115;-74
2022/03/26 02:43:39;;;;;;;9.75;6.70;;;;;;;;;;5072215;28;20494;-73
2022/03/26 02:46:05;;;;;;;17.48;7.75;;;;;;;;;;5073723;28;20497;-74
2022/03/26 02:48:31;;;;;;;11.32;6.55;;;;;;;;;;5073901;28;20099;-74
2022/03/26 02:50:58;;;;;;;12.73;6.95;;;;;;;;;;5066307;28;20035;-74
2022/03/26 02:53:24;;;;;;;13.35;6.63;;;;;;;;;;5060826;28;20064;-73
2022/03/26 02:55:52;;;;;;;13.95;6.93;;;;;;;;;;5053520;28;20028;-74
2022/03/26 02:58:18;;;;;;;12.98;6.90;;;;;;;;;;5053696;28;20083;-74
2022/03/26 03:00:44;;;;;;;10.65;6.18;;;;;;;;;;5057740;28;20029;-74
2022/03/26 03:03:10;;;;;;;17.30;7.45;;;;;;;;;;5065422;28;20063;-74
2022/03/26 03:05:36;;;;;;;15.02;7.63;;;;;;;;;;5052563;28;20036;-74
2022/03/26 03:08:03;;;;;;;13.02;6.95;;;;;;;;;;5053350;28;20474;-74
2022/03/26 03:10:30;;;;;;;17.83;7.28;;;;;;;;;;5053955;28;20478;-74
2022/03/26 03:12:56;;;;;;;12.07;7.40;;;;;;;;;;5054306;28;20016;-74
2022/03/26 03:15:22;;;;;;;11.25;6.95;;;;;;;;;;5071213;28;20478;-74
2022/03/26 03:17:49;;;;;;;14.55;7.07;;;;;;;;;;5071379;28;20113;-73
2022/03/26 03:20:16;;;;;;;11.95;7.47;;;;;;;;;;5074763;28;20028;-74
2022/03/26 03:22:43;;;;;;;11.23;6.75;;;;;;;;;;5061113;28;20029;-74
2022/03/26 03:25:10;;;;;;;17.63;7.30;;;;;;;;;;5062272;28;20059;-73
2022/03/26 03:27:36;;;;;;;11.50;7.35;;;;;;;;;;5053539;28;20025;-74
2022/03/26 03:30:03;;;;;;;12.05;7.25;;;;;;;;;;5054119;28;20053;-74
2022/03/26 03:32:29;;;;;;;14.73;7.25;;;;;;;;;;5069953;28;20054;-73
2022/03/26 03:34:56;;;;;;;15.93;7.50;;;;;;;;;;5064648;28;20056;-74
2022/03/26 03:37:26;;;;;;;11.85;7.00;;;;;;;;;;5054549;28;20066;-73
2022/03/26 03:39:52;;;;;;;15.23;7.30;;;;;;;;;;5051489;28;20475;-73
2022/03/26 03:42:18;;;;;;;12.75;7.03;;;;;;;;;;5065052;28;20113;-74
2022/03/26 03:44:44;;;;;;;14.52;7.35;;;;;;;;;;5072548;28;20385;-74
2022/03/26 03:47:10;;;;;;;14.15;8.00;;;;;;;;;;5052967;28;20032;-74
2022/03/26 03:49:36;;;;;;;12.65;7.43;;;;;;;;;;5054810;28;20851;-73
2022/03/26 03:52:04;;;;;;;13.90;7.40;;;;;;;;;;5052688;28;20488;-74
2022/03/26 03:54:30;;;;;;;16.13;8.68;;;;;;;;;;5056139;28;20029;-73
2022/03/26 03:57:00;;;;;;;15.85;8.73;;;;;;;;;;5057843;28;20036;-73
2022/03/26 03:59:27;;;;;;;16.33;8.95;;;;;;;;;;5051761;28;20029;-74
2022/03/26 04:01:54;;;;;;;13.98;8.35;;;;;;;;;;5058300;28;20383;-74
2022/03/26 04:04:20;;;;;;;13.93;8.10;;;;;;;;;;5072760;28;20028;-73
2022/03/26 04:06:46;;;;;;;12.60;7.85;;;;;;;;;;5066286;28;20051;-73
2022/03/26 04:09:12;;;;;;;14.23;8.25;;;;;;;;;;5052934;28;20025;-74
2022/03/26 04:11:38;;;;;;;17.13;8.05;;;;;;;;;;5054004;28;20037;-74
2022/03/26 04:14:06;;;;;;;15.48;8.40;;;;;;;;;;5064469;28;20180;-74
2022/03/26 04:16:32;;;;;;;14.52;7.93;;;;;;;;;;5073727;28;20074;-74
2022/03/26 04:18:58;;;;;;;13.82;7.88;;;;;;;;;;5057022;28;20021;-73
2022/03/26 04:21:25;;;;;;;12.18;7.50;;;;;;;;;;5062710;28;20033;-74
2022/03/26 04:23:54;;;;;;;13.25;8.00;;;;;;;;;;5057800;28;20462;-73
2022/03/26 04:26:21;;;;;;;12.70;7.05;;;;;;;;;;5055561;28;20040;-74
2022/03/26 04:28:47;;;;;;;12.05;7.35;;;;;;;;;;5063943;28;20025;-73
2022/03/26 04:31:13;;;;;;;14.93;8.00;;;;;;;;;;5072333;28;20048;-74
2022/03/26 04:33:39;;;;;;;12.55;7.13;;;;;;;;;;5072535;28;20028;-73
2022/03/26 04:36:05;;;;;;;14.40;8.25;;;;;;;;;;5053900;28;20060;-73
2022/03/26 04:38:31;;;;;;;14.02;7.70;;;;;;;;;;5053318;28;20104;-73
2022/03/26 04:40:57;;;;;;;15.57;7.60;;;;;;;;;;5052092;28;20851;-74
2022/03/26 04:43:23;;;;;;;13.05;7.57;;;;;;;;;;5052483;28;20060;-74
2022/03/26 04:45:49;;;;;;;14.57;7.80;;;;;;;;;;5051980;28;20021;-74
2022/03/26 04:48:15;;;;;;;23.17;8.13;;;;;;;;;;5054107;28;20043;-74
2022/03/26 04:50:42;;;;;;;16.48;7.28;;;;;;;;;;5071895;28;20146;-74
2022/03/26 04:53:09;;;;;;;12.88;7.32;;;;;;;;;;5060785;28;20029;-74
2022/03/26 04:55:35;;;;;;;15.88;7.10;;;;;;;;;;5052292;28;20213;-74
2022/03/26 04:58:02;;;;;;;12.95;7.05;;;;;;;;;;5054627;28;20025;-73
2022/03/26 05:00:28;;;;;;;13.52;7.30;;;;;;;;;;5059865;28;20053;-73
2022/03/26 05:02:55;;;;;;;19.10;7.50;;;;;;;;;;5067100;28;20538;-72
2022/03/26 05:05:21;;;;;;;16.33;7.65;;;;;;;;;;5062583;28;20107;-72
2022/03/26 05:07:47;;;;;;;13.60;7.50;;;;;;;;;;5076440;28;20028;-77
2022/03/26 05:10:31;;;;;;;16.05;7.63;;;;;;;;;;5068250;28;20025;-77
2022/03/26 05:12:58;;;;;;;22.08;9.18;;;;;;;;;;5057570;28;20910;-73
2022/03/26 05:15:26;;;;;;;19.70;7.68;;;;;;;;;;5060762;28;20049;-76
2022/03/26 05:17:53;;;;;;;19.40;8.20;;;;;;;;;;5055523;28;20029;-72
2022/03/26 05:20:20;;;;;;;14.95;8.10;;;;;;;;;;5062203;28;20056;-76
2022/03/26 05:22:47;;;;;;;17.40;8.18;;;;;;;;;;5061563;28;20099;-83
2022/03/26 05:25:13;;;;;;;16.50;8.05;;;;;;;;;;5068857;28;20052;-74
2022/03/26 05:27:43;;;;;;;18.45;8.27;;;;;;;;;;5062147;28;20031;-74
2022/03/26 05:30:09;;;;;;;17.00;8.50;;;;;;;;;;5063220;28;20076;-76
2022/03/26 05:32:36;;;;;;;18.05;8.85;;;;;;;;;;5066899;28;20032;-78
2022/03/26 05:35:06;;;;;;;16.58;9.05;;;;;;;;;;5064534;28;20434;-74
2022/03/26 05:37:33;;;;;;;16.05;8.77;;;;;;;;;;5071465;28;20024;-71
2022/03/26 05:39:59;;;;;;;13.73;8.95;;;;;;;;;;5054905;28;20087;-81
2022/03/26 05:42:25;;;;;;;13.18;8.35;;;;;;;;;;5060448;28;20454;-81
2022/03/26 05:44:51;;;;;;;14.32;8.50;;;;;;;;;;5069462;28;20037;-80
2022/03/26 05:47:17;;;;;;;13.52;8.38;;;;;;;;;;5066187;28;20025;-80
2022/03/26 05:49:43;;;;;;;15.55;8.43;;;;;;;;;;5071027;28;20161;-80
2022/03/26 05:52:09;;;;;;;24.73;11.70;;;;;;;;;;5054679;28;20021;-79
2022/03/26 05:54:37;;;;;;;39.17;16.10;;;;;;;;;;5063519;28;20398;-82
2022/03/26 05:57:04;;;;;;;28.55;11.75;;;;;;;;;;5068135;28;20041;-79
2022/03/26 05:59:31;;;;;;;19.90;9.73;;;;;;;;;;5052413;28;20037;-80
2022/03/26 06:01:57;;;;;;;26.45;10.40;;;;;;;;;;5065541;28;20111;-78
2022/03/26 06:04:23;;;;;;;15.95;8.73;;;;;;;;;;5062211;28;20025;-77
2022/03/26 06:06:50;;;;;;;20.35;8.90;;;;;;;;;;5061613;28;20028;-76
2022/03/26 06:09:16;;;;;;;18.25;8.95;;;;;;;;;;5067635;28;20020;-73
2022/03/26 06:11:42;;;;;;;19.42;8.48;;;;;;;;;;5073383;28;20055;-75
2022/03/26 06:14:08;;;;;;;18.50;13.48;;;;;;;;;;5071067;28;20028;-77
2022/03/26 06:16:34;;;;;;;25.23;15.98;;;;;;;;;;5071989;28;20031;-74
2022/03/26 06:19:01;;;;;;;19.20;12.40;;;;;;;;;;5080682;28;20045;-74
2022/03/26 06:21:30;;;;;;;18.35;9.95;;;;;;;;;;5060375;28;20070;-83
2022/03/26 06:23:58;;;;;;;16.92;9.32;;;;;;;;;;5058960;28;20116;-77
2022/03/26 06:26:25;;;;;;;14.77;8.75;;;;;;;;;;5068948;28;20048;-79
2022/03/26 06:28:51;;;;;;;20.60;9.38;;;;;;;;;;5067063;28;20020;-75
2022/03/26 06:31:17;;;;;;;30.67;10.48;;;;;;;;;;5060593;28;20047;-74
2022/03/26 06:33:43;;;;;;;17.95;9.50;;;;;;;;;;5058782;28;20120;-74
2022/03/26 06:36:09;;;;;;;14.73;9.23;;;;;;;;;;5054398;28;20391;-72
2022/03/26 06:38:38;;;;;;;12.77;8.57;;;;;;;;;;5067379;28;20162;-74
2022/03/26 06:41:07;;;;;;;16.80;8.57;;;;;;;;;;5063617;28;20140;-75
2022/03/26 06:43:33;;;;;;;18.75;9.13;;;;;;;;;;5062916;28;20474;-74
2022/03/26 06:45:59;;;;;;;14.27;8.50;;;;;;;;;;5066526;28;20036;-72
2022/03/26 06:48:25;;;;;;;13.93;9.00;;;;;;;;;;5060154;28;20028;-73
2022/03/26 06:50:51;;;;;;;12.98;8.57;;;;;;;;;;5062016;28;20081;-80
2022/03/26 06:53:17;;;;;;;15.43;9.10;;;;;;;;;;5060917;28;20035;-73
2022/03/26 06:55:43;;;;;;;15.80;8.82;;;;;;;;;;5059498;28;20043;-72
2022/03/26 06:58:09;;;;;;;15.57;9.13;;;;;;;;;;5053881;28;20027;-74
2022/03/26 07:00:36;;;;;;;14.73;9.18;;;;;;;;;;5058543;28;20021;-72
2022/03/26 07:03:02;;;;;;;15.20;8.32;;;;;;;;;;5066647;28;20115;-74
2022/03/26 07:05:28;;;;;;;13.40;9.52;;;;;;;;;;5084360;28;20517;-79
2022/03/26 07:07:54;;;;;;;16.80;10.35;;;;;;;;;;5058955;28;20406;-79
2022/03/26 07:10:20;;;;;;;14.07;10.30;;;;;;;;;;5065920;28;20060;-82
2022/03/26 07:12:49;;;;;;;26.55;18.02;;;;;;;;;;5063798;28;20025;-75
2022/03/26 07:15:16;;;;;;;18.60;13.43;;;;;;;;;;5068172;28;20135;-77
2022/03/26 07:17:43;;;;;;;16.63;11.43;;;;;;;;;;5063524;28;20103;-74
2022/03/26 07:20:09;;;;;;;26.95;14.82;;;;;;;;;;5064523;28;20028;-75
2022/03/26 07:22:35;;;;;;;32.65;17.83;;;;;;;;;;5058256;28;20021;-73
2022/03/26 07:25:04;;;;;;;32.25;17.90;;;;;;;;;;5063141;28;20021;-74
2022/03/26 07:27:33;;;;;;;27.75;14.63;;;;;;;;;;5063780;28;20063;-73
2022/03/26 07:29:59;;;;;;;18.75;11.85;;;;;;;;;;5070540;28;20106;-72
2022/03/26 07:32:25;;;;;;;20.90;11.07;;;;;;;;;;5054814;28;20104;-73
2022/03/26 07:34:52;;;;;;;18.05;10.68;;;;;;;;;;5055765;28;20033;-73
2022/03/26 07:37:20;;;;;;;15.45;10.95;;;;;;;;;;5070352;28;20033;-72
2022/03/26 07:39:46;;;;;;;17.02;11.05;;;;;;;;;;5072601;28;20025;-73
2022/03/26 07:42:12;;;;;;;17.52;11.10;;;;;;;;;;5070541;28;20521;-73
2022/03/26 07:44:39;;;;;;;19.08;11.90;;;;;;;;;;5072170;28;20073;-73
2022/03/26 07:47:05;;;;;;;20.08;12.18;;;;;;;;;;5072318;28;20111;-73
2022/03/26 07:49:34;;;;;;;19.52;12.40;;;;;;;;;;5070007;28;20099;-72
2022/03/26 07:52:00;;;;;;;16.60;12.20;;;;;;;;;;5068792;28;20048;-73
2022/03/26 07:54:26;;;;;;;20.13;11.95;;;;;;;;;;5052180;28;20086;-73
2022/03/26 07:56:53;;;;;;;20.65;12.55;;;;;;;;;;5052261;28;20133;-73
2022/03/26 07:59:19;;;;;;;19.10;12.02;;;;;;;;;;5052005;28;20107;-73
2022/03/26 08:01:45;;;;;;;27.20;13.02;;;;;;;;;;5051212;28;20025;-72
2022/03/26 08:04:12;;;;;;;25.17;14.02;;;;;;;;;;5064135;28;20031;-73
2022/03/26 08:06:38;;;;;;;18.33;11.13;;;;;;;;;;5068948;28;20251;-72
2022/03/26 08:09:05;;;;;;;24.77;11.93;;;;;;;;;;5071323;28;20062;-73
2022/03/26 08:11:31;;;;;;;115.95;28.02;;;;;;;;;;5072084;28;20509;-73
2022/03/26 08:13:57;;;;;;;22.35;13.10;;;;;;;;;;5071892;28;20443;-73
2022/03/26 08:16:23;;;;;;;34.95;14.50;;;;;;;;;;5071529;28;20040;-73
2022/03/26 08:18:49;;;;;;;27.75;14.75;;;;;;;;;;5072095;28;20021;-74
2022/03/26 08:21:17;;;;;;;24.75;11.57;;;;;;;;;;5071800;28;20029;-73
2022/03/26 08:23:43;;;;;;;16.42;10.27;;;;;;;;;;5075127;28;20031;-73
2022/03/26 08:26:26;;;;;;;18.42;9.60;;;;;;;;;;5060169;28;20410;-73
2022/03/26 08:28:53;;;;;;;24.35;13.68;;;;;;;;;;5051955;28;20021;-73
2022/03/26 08:31:20;;;;;;;18.85;10.10;;;;;;;;;;5052971;28;20081;-73
2022/03/26 08:33:46;;;;;;;16.80;10.25;;;;;;;;;;5051616;28;20033;-73
2022/03/26 08:36:13;;;;;;;19.85;10.57;;;;;;;;;;5055352;28;20028;-72
2022/03/26 08:38:39;;;;;;;20.25;11.40;;;;;;;;;;5074845;28;20038;-73
2022/03/26 08:41:05;;;;;;;26.17;13.65;;;;;;;;;;5076515;28;20029;-72
2022/03/26 08:43:32;;;;;;;18.42;11.52;;;;;;;;;;5073660;28;20029;-70
2022/03/26 08:45:58;;;;;;;29.45;15.65;;;;;;;;;;5072617;28;20377;-71
2022/03/26 08:48:24;;;;;;;18.10;10.45;;;;;;;;;;5073781;28;20031;-72
2022/03/26 08:50:50;;;;;;;20.52;9.75;;;;;;;;;;5075568;28;20540;-71
2022/03/26 08:53:21;;;;;;;19.83;10.52;;;;;;;;;;5077631;28;20029;-72
2022/03/26 08:55:47;;;;;;;16.38;9.25;;;;;;;;;;5075148;28;20044;-72
2022/03/26 08:58:14;;;;;;;20.05;8.45;;;;;;;;;;5070534;28;20028;-72
2022/03/26 09:00:40;;;;;;;15.25;9.23;;;;;;;;;;5074875;28;20478;-71
2022/03/26 09:03:06;;;;;;;16.77;8.93;;;;;;;;;;5070857;28;20020;-71
2022/03/26 09:05:32;;;;;;;20.63;11.07;;;;;;;;;;5055125;28;20390;-72
2022/03/26 09:07:58;;;;;;;18.45;10.02;;;;;;;;;;5067336;28;20458;-72
2022/03/26 09:10:24;;;;;;;14.68;8.75;;;;;;;;;;5054977;28;20061;-70
2022/03/26 09:12:51;;;;;;;19.42;9.43;;;;;;;;;;5056253;28;20017;-72
2022/03/26 09:15:17;;;;;;;14.20;8.90;;;;;;;;;;5054735;28;20036;-71
2022/03/26 09:17:43;;;;;;;18.65;9.35;;;;;;;;;;5054700;28;20021;-71
2022/03/26 09:20:09;;;;;;;18.50;8.98;;;;;;;;;;5070520;28;20119;-71
2022/03/26 09:22:36;;;;;;;17.73;9.25;;;;;;;;;;5077361;28;20369;-72
2022/03/26 09:25:03;;;;;;;17.60;9.18;;;;;;;;;;5074803;28;20436;-71
2022/03/26 09:27:29;;;;;;;18.65;8.63;;;;;;;;;;5074135;28;20040;-72
2022/03/26 09:29:55;;;;;;;14.02;8.00;;;;;;;;;;5064285;28;20076;-71
2022/03/26 09:32:22;;;;;;;16.40;8.93;;;;;;;;;;5054467;28;20025;-73
2022/03/26 09:34:48;;;;;;;19.80;8.02;;;;;;;;;;5056274;28;20037;-72
2022/03/26 09:37:15;;;;;;;13.10;8.35;;;;;;;;;;5054021;28;20028;-70
2022/03/26 09:39:41;;;;;;;19.35;8.43;;;;;;;;;;5069885;28;20036;-72
2022/03/26 09:42:08;;;;;;;16.38;8.95;;;;;;;;;;5073958;28;20036;-71
2022/03/26 09:45:06;;;;;;;15.70;7.50;;;;;;;;;;5068001;28;20028;-74
2022/03/26 09:47:31;;;;;;;12.95;8.13;;;;;;;;;;5064707;28;20124;-72
2022/03/26 09:49:58;;;;;;;15.93;6.78;;;;;;;;;;5060401;28;20028;-73
2022/03/26 09:52:24;;;;;;;18.42;7.40;;;;;;;;;;5066396;28;20031;-72
2022/03/26 09:54:53;;;;;;;19.77;8.07;;;;;;;;;;5071782;28;20047;-84
2022/03/26 09:57:19;;;;;;;15.73;6.97;;;;;;;;;;5063118;28;20038;-73
2022/03/26 09:59:55;;;;;;;19.77;7.60;;;;;;;;;;5065145;28;20099;-75
2022/03/26 10:02:21;;;;;;;13.55;6.60;;;;;;;;;;5067725;28;20072;-79
2022/03/26 10:04:47;;;;;;;17.83;7.70;;;;;;;;;;5065068;28;20167;-72
2022/03/26 10:07:14;;;;;;;14.13;7.57;;;;;;;;;;5061892;28;20055;-74
2022/03/26 10:09:44;;;;;;;12.60;6.68;;;;;;;;;;5063791;28;20024;-71
2022/03/26 10:12:10;;;;;;;18.45;7.32;;;;;;;;;;5063984;28;20102;-74
2022/03/26 10:14:37;;;;;;;10.60;7.38;;;;;;;;;;5066994;28;20086;-83
2022/03/26 10:17:10;;;;;;;16.92;8.23;;;;;;;;;;5070856;28;20036;-87
2022/03/26 10:19:36;;;;;;;30.92;17.10;;;;;;;;;;5068310;28;20029;-87
2022/03/26 10:22:03;;;;;;;14.93;8.85;;;;;;;;;;5068461;28;20106;-85
2022/03/26 10:24:30;;;;;;;15.15;7.60;;;;;;;;;;5068220;28;20431;-86
2022/03/26 10:26:58;;;;;;;17.73;8.73;;;;;;;;;;5060064;28;20021;-80
2022/03/26 10:29:24;;;;;;;18.13;8.00;;;;;;;;;;5068894;28;20036;-92
2022/03/26 10:34:35;;;;;;;19.13;7.63;;;;;;;;;;5060899;28;20054;-83
2022/03/26 10:37:02;;;;;;;18.15;9.13;;;;;;;;;;5062637;28;20532;-87
2022/03/26 10:39:29;;;;;;;16.40;7.45;;;;;;;;;;5065682;28;20044;-76
2022/03/26 10:41:56;;;;;;;40.10;7.65;;;;;;;;;;5066455;28;20048;-74
2022/03/26 10:44:26;;;;;;;11.10;6.55;;;;;;;;;;5071344;28;20024;-73
2022/03/26 10:46:58;;;;;;;17.95;7.65;;;;;;;;;;5067021;28;20090;-84
2022/03/26 10:49:28;;;;;;;16.08;6.40;;;;;;;;;;5067701;28;20068;-76
2022/03/26 10:51:55;;;;;;;19.75;8.15;;;;;;;;;;5061336;28;20033;-77
2022/03/26 10:54:27;;;;;;;23.20;8.48;;;;;;;;;;5058738;28;20500;-74
2022/03/26 10:56:54;;;;;;;11.93;6.65;;;;;;;;;;5054906;28;20261;-85
2022/03/26 10:59:21;;;;;;;22.45;7.80;;;;;;;;;;5071706;28;20029;-84
2022/03/26 11:01:47;;;;;;;14.85;6.30;;;;;;;;;;5060840;28;20028;-84
2022/03/26 11:04:13;;;;;;;12.82;6.72;;;;;;;;;;5062593;28;20445;-79
2022/03/26 11:06:40;;;;;;;10.75;6.40;;;;;;;;;;5055086;28;20029;-74
2022/03/26 11:09:07;;;;;;;14.55;6.80;;;;;;;;;;5045595;28;20029;-76
2022/03/26 11:11:33;;;;;;;13.88;7.05;;;;;;;;;;5062128;28;20145;-78
2022/03/26 11:14:31;;;;;;;12.90;5.90;;;;;;;;;;5066068;28;20028;-72
2022/03/26 11:17:09;;;;;;;9.77;6.13;;;;;;;;;;5029298;28;20056;-87
2022/03/26 11:19:59;;;;;;;12.05;6.28;;;;;;;;;;5045668;28;20037;-80
2022/03/26 11:22:25;;;;;;;14.13;6.28;;;;;;;;;;5036478;28;20051;-74
2022/03/26 11:25:07;;;;;;;15.18;5.95;;;;;;;;;;5044041;28;20121;-74
2022/03/26 11:27:48;;;;;;;12.45;6.18;;;;;;;;;;5029826;28;20033;-77
2022/03/26 11:30:15;;;;;;;11.23;5.38;;;;;;;;;;5031656;28;20083;-74
2022/03/26 11:32:44;;;;;;;10.60;5.60;;;;;;;;;;5029144;28;20041;-79
2022/03/26 11:35:14;;;;;;;14.52;5.47;;;;;;;;;;5032813;28;20041;-74
2022/03/26 11:37:52;;;;;;;9.70;5.70;;;;;;;;;;5040466;28;20029;-79
2022/03/26 11:40:37;;;;;;;10.10;5.80;;;;;;;;;;5035057;28;20033;-80
2022/03/26 11:43:03;;;;;;;10.20;5.22;;;;;;;;;;5038613;28;20155;-83
2022/03/26 11:51:23;;;;;;;8.98;4.72;;;;;;;;;;5062532;28;20082;-73
2022/03/26 11:53:51;;;;;;;11.23;5.10;;;;;;;;;;5073247;28;20405;-77
2022/03/26 11:56:35;;;;;;;12.82;4.78;;;;;;;;;;5051520;28;20036;-78
2022/03/26 11:59:23;;;;;;;12.52;4.97;;;;;;;;;;5065976;28;20078;-74
2022/03/26 12:01:50;;;;;;;22.13;5.55;;;;;;;;;;5066216;28;20123;-74
2022/03/26 12:04:17;;;;;;;9.70;4.82;;;;;;;;;;5065708;28;20090;-76
2022/03/26 12:06:47;;;;;;;9.77;5.40;;;;;;;;;;5055906;28;20021;-74
2022/03/26 12:09:28;;;;;;;9.90;5.18;;;;;;;;;;5065122;28;20032;-76
2022/03/26 12:12:14;;;;;;;9.25;4.82;;;;;;;;;;5054847;28;20032;-74
2022/03/26 12:14:59;;;;;;;8.18;4.70;;;;;;;;;;5060141;28;20029;-76
2022/03/26 12:17:44;;;;;;;10.48;4.65;;;;;;;;;;5068022;28;20027;-74
2022/03/26 12:20:22;;;;;;;12.02;4.43;;;;;;;;;;5067544;28;20024;-81
2022/03/26 12:22:49;;;;;;;6.85;3.80;;;;;;;;;;5061882;28;20465;-82
2022/03/26 12:25:16;;;;;;;6.72;4.25;;;;;;;;;;5059474;28;20048;-77
2022/03/26 12:27:46;;;;;;;8.73;4.35;;;;;;;;;;5073075;28;20028;-72
2022/03/26 12:30:14;;;;;;;8.82;4.32;;;;;;;;;;5066977;28;20055;-79
2022/03/26 12:32:41;;;;;;;8.38;4.38;;;;;;;;;;5063715;28;20021;-73
2022/03/26 12:35:09;;;;;;;9.98;4.25;;;;;;;;;;5068241;28;20072;-75
2022/03/26 12:37:35;;;;;;;10.18;3.90;;;;;;;;;;5071265;28;20457;-79
2022/03/26 12:40:02;;;;;;;12.00;4.63;;;;;;;;;;5068017;28;20378;-78
2022/03/26 12:42:28;;;;;;;8.02;3.95;;;;;;;;;;5069151;28;20040;-75
2022/03/26 12:44:54;;;;;;;7.70;4.35;;;;;;;;;;5066534;28;20043;-75
2022/03/26 12:47:21;;;;;;;8.73;3.85;;;;;;;;;;5068633;28;20021;-79
2022/03/26 12:49:47;;;;;;;10.35;4.35;;;;;;;;;;5067312;28;20078;-73
2022/03/26 12:52:17;;;;;;;9.18;4.18;;;;;;;;;;5066295;28;20020;-83
2022/03/26 12:54:44;;;;;;;10.95;4.60;;;;;;;;;;5071296;28;20045;-72
2022/03/26 12:57:10;;;;;;;8.50;4.53;;;;;;;;;;5071860;28;20017;-78
2022/03/26 12:59:36;;;;;;;9.43;4.60;;;;;;;;;;5070271;28;20058;-71
2022/03/26 13:02:09;;;;;;;14.45;4.80;;;;;;;;;;5069637;28;20025;-77
2022/03/26 13:04:38;;;;;;;8.70;4.63;;;;;;;;;;5069919;28;20470;-76
2022/03/26 13:07:04;;;;;;;7.40;4.60;;;;;;;;;;5069381;28;20075;-73
2022/03/26 13:09:31;;;;;;;12.13;5.07;;;;;;;;;;5064667;28;20029;-82
2022/03/26 13:11:57;;;;;;;9.82;4.90;;;;;;;;;;5073273;28;20048;-73
2022/03/26 13:14:23;;;;;;;16.20;8.05;;;;;;;;;;5074636;28;20040;-77
2022/03/26 13:16:50;;;;;;;20.42;11.65;;;;;;;;;;5075343;28;20037;-74
2022/03/26 13:19:17;;;;;;;8.50;5.18;;;;;;;;;;5068919;28;20025;-81
2022/03/26 13:21:44;;;;;;;12.40;4.63;;;;;;;;;;5055326;28;20150;-73
2022/03/26 13:24:15;;;;;;;8.55;4.55;;;;;;;;;;5053382;28;20021;-81
2022/03/26 13:26:59;;;;;;;11.77;4.50;;;;;;;;;;5055020;28;20387;-74
2022/03/26 13:29:25;;;;;;;;;;;;;;;;;;5055379;28;20049;-75
2022/03/26 13:31:53;;;;;;;12.38;4.75;;;;;;;;;;5055003;28;19912;-73
2022/03/26 13:34:23;;;;;;;10.05;4.88;;;;;;;;;;5055868;28;20021;-74
2022/03/26 13:36:49;;;;;;;8.45;4.93;;;;;;;;;;5055017;28;20044;-74
2022/03/26 13:39:27;;;;;;;8.52;4.95;;;;;;;;;;5055776;28;20035;-75
2022/03/26 13:41:55;;;;;;;8.20;4.50;;;;;;;;;;5076648;28;20078;-73
2022/03/26 13:44:22;;;;;;;8.95;5.10;;;;;;;;;;5073498;28;20032;-76
2022/03/26 13:46:50;;;;;;;8.98;4.53;;;;;;;;;;5074758;28;20029;-75
2022/03/26 13:49:29;;;;;;;12.57;5.25;;;;;;;;;;5074710;28;20055;-76
2022/03/26 13:51:56;;;;;;;11.80;4.60;;;;;;;;;;5077474;28;20055;-73
2022/03/26 13:54:32;;;;;;;10.68;5.00;;;;;;;;;;5074677;28;20424;-80
2022/03/26 13:56:59;;;;;;;15.25;4.97;;;;;;;;;;5072503;28;20036;-78
2022/03/26 13:59:26;;;;;;;7.63;4.90;;;;;;;;;;5074741;28;20466;-72
2022/03/26 14:01:53;;;;;;;12.23;4.88;;;;;;;;;;5072582;28;20032;-73
2022/03/26 14:04:24;;;;;;;10.82;5.10;;;;;;;;;;5073956;28;20032;-73
2022/03/26 14:06:50;;;;;;;9.38;4.20;;;;;;;;;;5074161;28;20020;-75
2022/03/26 14:09:22;;;;;;;9.32;4.40;;;;;;;;;;5074305;28;20036;-75
2022/03/26 14:11:52;;;;;;;9.88;4.55;;;;;;;;;;5072990;28;20032;-73
2022/03/26 14:14:19;;;;;;;10.43;5.00;;;;;;;;;;5073581;28;20039;-76
2022/03/26 14:16:45;;;;;;;13.05;5.00;;;;;;;;;;5069780;28;20060;-74
2022/03/26 14:19:11;;;;;;;10.98;5.00;;;;;;;;;;5058722;28;20021;-74
2022/03/26 14:21:37;;;;;;;8.82;4.40;;;;;;;;;;5054443;28;20029;-77
2022/03/26 14:24:13;;;;;;;9.70;4.95;;;;;;;;;;5058071;28;20028;-75
2022/03/26 14:26:39;;;;;;;9.35;5.18;;;;;;;;;;5057027;28;20466;-78
2022/03/26 14:29:05;;;;;;;12.35;5.15;;;;;;;;;;5052624;28;20367;-76
2022/03/26 14:31:32;;;;;;;14.32;4.82;;;;;;;;;;5053559;28;20029;-77
2022/03/26 14:33:58;;;;;;;8.20;4.40;;;;;;;;;;5058678;28;20029;-74
2022/03/26 14:36:24;;;;;;;20.77;5.32;;;;;;;;;;5072818;28;20033;-73
2022/03/26 14:38:50;;;;;;;9.80;4.72;;;;;;;;;;5053415;28;20071;-75
2022/03/26 14:41:16;;;;;;;9.20;4.63;;;;;;;;;;5053451;28;20037;-75